createdAt,value
2023-12-16T00:00:20.116Z,1033.16
2023-12-16T00:00:40.742Z,1033.12
2023-12-16T00:01:01.526Z,1033.11
2023-12-16T00:01:21.909Z,1033.12
2023-12-16T00:01:44.920Z,1033.14
2023-12-16T00:02:08.462Z,1033.1
2023-12-16T00:02:23.613Z,1033.13
2023-12-16T00:02:44.092Z,1033.07
2023-12-16T00:03:04.654Z,1033.13
2023-12-16T00:03:25.283Z,1033.06
2023-12-16T00:03:45.937Z,1033.06
2023-12-16T00:04:06.419Z,1033.08
2023-12-16T00:04:27.039Z,1033.08
2023-12-16T00:04:47.590Z,1033.1
2023-12-16T00:05:08.102Z,1033.1
2023-12-16T00:05:28.732Z,1033.14
2023-12-16T00:05:49.311Z,1033.07
2023-12-16T00:06:09.862Z,1033.1
2023-12-16T00:06:30.414Z,1033.11
2023-12-16T00:06:50.993Z,1033.13
2023-12-16T00:07:11.610Z,1033.12
2023-12-16T00:07:32.089Z,1033.13
2023-12-16T00:07:52.675Z,1033.1
2023-12-16T00:08:13.286Z,1033.12
2023-12-16T00:08:33.822Z,1033.08
2023-12-16T00:08:54.391Z,1033.08
2023-12-16T00:09:14.964Z,1033.07
2023-12-16T00:09:35.590Z,1033.05
2023-12-16T00:09:56.151Z,1033.06
2023-12-16T00:10:16.711Z,1033
2023-12-16T00:10:37.185Z,1033
2023-12-16T00:10:57.824Z,1032.97
2023-12-16T00:11:18.430Z,1032.99
2023-12-16T00:11:38.894Z,1032.96
2023-12-16T00:11:59.558Z,1032.96
2023-12-16T00:12:20.112Z,1032.94
2023-12-16T00:12:40.689Z,1032.93
2023-12-16T00:13:01.321Z,1032.91
2023-12-16T00:13:21.887Z,1032.98
2023-12-16T00:13:42.406Z,1032.94
2023-12-16T00:14:02.988Z,1032.95
2023-12-16T00:14:23.540Z,1032.94
2023-12-16T00:14:44.157Z,1032.92
2023-12-16T00:15:04.717Z,1032.95
2023-12-16T00:15:25.290Z,1032.91
2023-12-16T00:15:45.885Z,1032.97
2023-12-16T00:16:06.447Z,1032.9
2023-12-16T00:16:27.202Z,1032.91
2023-12-16T00:16:47.578Z,1032.97
2023-12-16T00:17:08.142Z,1032.93
2023-12-16T00:17:28.757Z,1032.97
2023-12-16T00:17:49.286Z,1032.97
2023-12-16T00:18:09.871Z,1032.98
2023-12-16T00:18:30.698Z,1032.96
2023-12-16T00:18:51.215Z,1032.99
2023-12-16T00:19:11.719Z,1033.01
2023-12-16T00:19:32.226Z,1032.99
2023-12-16T00:19:52.785Z,1033
2023-12-16T00:20:13.318Z,1032.96
2023-12-16T00:20:33.842Z,1033
2023-12-16T00:20:54.427Z,1032.99
2023-12-16T00:21:15.040Z,1033.02
2023-12-16T00:21:35.593Z,1032.97
2023-12-16T00:21:56.146Z,1033.04
2023-12-16T00:22:16.737Z,1033.04
2023-12-16T00:22:37.307Z,1033.07
2023-12-16T00:22:57.853Z,1033.04
2023-12-16T00:23:18.433Z,1033.06
2023-12-16T00:23:39.012Z,1033.05
2023-12-16T00:23:59.590Z,1033.09
2023-12-16T00:24:20.160Z,1033.07
2023-12-16T00:24:41.011Z,1033.02
2023-12-16T00:25:01.383Z,1033.06
2023-12-16T00:25:21.990Z,1033.09
2023-12-16T00:25:42.434Z,1033.06
2023-12-16T00:26:03.080Z,1033.06
2023-12-16T00:26:23.624Z,1033.09
2023-12-16T00:26:44.161Z,1033.11
2023-12-16T00:27:04.724Z,1033.1
2023-12-16T00:27:25.294Z,1033.05
2023-12-16T00:27:45.927Z,1033.04
2023-12-16T00:28:06.549Z,1033.09
2023-12-16T00:28:27.122Z,1033.07
2023-12-16T00:28:47.594Z,1033.05
2023-12-16T00:29:08.155Z,1033.01
2023-12-16T00:29:28.718Z,1032.97
2023-12-16T00:29:49.302Z,1033
2023-12-16T00:30:10.088Z,1032.96
2023-12-16T00:30:30.490Z,1032.95
2023-12-16T00:30:51.115Z,1032.99
2023-12-16T00:31:11.692Z,1032.94
2023-12-16T00:31:32.225Z,1032.98
2023-12-16T00:31:52.790Z,1032.95
2023-12-16T00:32:13.307Z,1032.9
2023-12-16T00:32:33.921Z,1032.91
2023-12-16T00:32:54.520Z,1032.9
2023-12-16T00:33:15.155Z,1032.92
2023-12-16T00:33:35.643Z,1032.9
2023-12-16T00:33:56.245Z,1032.93
2023-12-16T00:34:16.961Z,1032.92
2023-12-16T00:34:37.348Z,1032.92
2023-12-16T00:34:57.889Z,1032.95
2023-12-16T00:35:18.445Z,1032.94
2023-12-16T00:35:39.030Z,1032.94
2023-12-16T00:35:59.635Z,1032.93
2023-12-16T00:36:20.195Z,1032.94
2023-12-16T00:36:40.782Z,1032.96
2023-12-16T00:37:01.297Z,1032.95
2023-12-16T00:37:22.019Z,1032.93
2023-12-16T00:37:42.811Z,1032.93
2023-12-16T00:38:03.059Z,1033
2023-12-16T00:38:23.637Z,1032.95
2023-12-16T00:38:44.172Z,1032.97
2023-12-16T00:39:04.776Z,1032.98
2023-12-16T00:39:25.320Z,1032.93
2023-12-16T00:39:45.963Z,1032.95
2023-12-16T00:40:06.504Z,1032.94
2023-12-16T00:40:27.105Z,1032.92
2023-12-16T00:40:47.703Z,1032.95
2023-12-16T00:41:08.275Z,1032.95
2023-12-16T00:41:28.769Z,1032.97
2023-12-16T00:41:49.383Z,1032.95
2023-12-16T00:42:26.412Z,1032.88
2023-12-16T00:42:46.992Z,1032.88
2023-12-16T00:43:07.672Z,1032.92
2023-12-16T00:43:28.149Z,1032.9
2023-12-16T00:43:48.673Z,1032.95
2023-12-16T00:44:09.252Z,1032.86
2023-12-16T00:44:29.831Z,1032.9
2023-12-16T00:44:50.411Z,1032.86
2023-12-16T00:45:11.098Z,1032.92
2023-12-16T00:45:31.552Z,1032.87
2023-12-16T00:45:52.085Z,1032.94
2023-12-16T00:46:12.732Z,1032.86
2023-12-16T00:46:33.294Z,1032.89
2023-12-16T00:46:53.864Z,1032.92
2023-12-16T00:47:14.381Z,1032.91
2023-12-16T00:47:35.098Z,1032.93
2023-12-16T00:47:55.626Z,1032.95
2023-12-16T00:48:16.184Z,1032.9
2023-12-16T00:48:36.789Z,1032.96
2023-12-16T00:48:57.407Z,1032.95
2023-12-16T00:49:18.017Z,1032.89
2023-12-16T00:49:38.420Z,1032.96
2023-12-16T00:49:59.053Z,1032.98
2023-12-16T00:50:19.555Z,1032.93
2023-12-16T00:50:40.137Z,1032.9
2023-12-16T00:51:00.693Z,1032.91
2023-12-16T00:51:21.284Z,1032.9
2023-12-16T00:51:41.909Z,1032.88
2023-12-16T00:52:02.454Z,1032.88
2023-12-16T00:52:23.070Z,1032.87
2023-12-16T00:52:43.602Z,1032.93
2023-12-16T00:53:04.141Z,1032.93
2023-12-16T00:53:24.720Z,1032.91
2023-12-16T00:53:45.289Z,1032.86
2023-12-16T00:54:05.848Z,1032.85
2023-12-16T00:54:26.443Z,1032.83
2023-12-16T00:54:47.039Z,1032.87
2023-12-16T00:55:07.721Z,1032.89
2023-12-16T00:55:28.191Z,1032.9
2023-12-16T00:55:48.727Z,1032.78
2023-12-16T00:56:09.283Z,1032.85
2023-12-16T00:56:29.873Z,1032.86
2023-12-16T00:56:50.419Z,1032.9
2023-12-16T00:57:10.999Z,1032.87
2023-12-16T00:57:31.577Z,1032.94
2023-12-16T00:57:52.179Z,1032.9
2023-12-16T00:58:12.750Z,1032.9
2023-12-16T00:58:33.284Z,1032.9
2023-12-16T00:58:53.881Z,1032.94
2023-12-16T00:59:14.457Z,1032.92
2023-12-16T00:59:35.047Z,1032.98
2023-12-16T00:59:55.595Z,1032.9
2023-12-16T01:00:16.189Z,1032.9
2023-12-16T01:00:36.775Z,1032.93
2023-12-16T01:00:57.382Z,1032.97
2023-12-16T01:01:17.950Z,1032.96
2023-12-16T01:01:38.526Z,1032.91
2023-12-16T01:01:59.049Z,1032.98
2023-12-16T01:02:19.578Z,1033
2023-12-16T01:02:40.142Z,1032.96
2023-12-16T01:03:00.801Z,1032.98
2023-12-16T01:03:21.348Z,1033.04
2023-12-16T01:03:42.080Z,1033.04
2023-12-16T01:04:02.551Z,1033.04
2023-12-16T01:04:23.118Z,1033.05
2023-12-16T01:04:43.628Z,1033.07
2023-12-16T01:05:04.194Z,1033.05
2023-12-16T01:05:24.799Z,1033.04
2023-12-16T01:05:45.359Z,1033.07
2023-12-16T01:06:05.881Z,1033.08
2023-12-16T01:06:26.500Z,1033.05
2023-12-16T01:06:47.119Z,1033.09
2023-12-16T01:07:07.761Z,1033.05
2023-12-16T01:07:28.268Z,1033.08
2023-12-16T01:07:48.744Z,1033.09
2023-12-16T01:08:09.306Z,1033.07
2023-12-16T01:08:29.944Z,1033.13
2023-12-16T01:08:50.509Z,1033.07
2023-12-16T01:09:11.105Z,1033.1
2023-12-16T01:09:31.635Z,1033.05
2023-12-16T01:09:52.224Z,1033.09
2023-12-16T01:10:12.791Z,1033.04
2023-12-16T01:10:33.370Z,1033.14
2023-12-16T01:10:53.922Z,1033.08
2023-12-16T01:11:14.478Z,1033.09
2023-12-16T01:11:35.056Z,1033.1
2023-12-16T01:11:55.624Z,1033.06
2023-12-16T01:12:16.192Z,1033.06
2023-12-16T01:12:36.784Z,1033.08
2023-12-16T01:12:57.463Z,1033.05
2023-12-16T01:13:17.956Z,1033.1
2023-12-16T01:13:38.479Z,1033.04
2023-12-16T01:13:59.059Z,1033.08
2023-12-16T01:14:19.649Z,1033.1
2023-12-16T01:14:40.227Z,1033.08
2023-12-16T01:15:00.792Z,1033.14
2023-12-16T01:15:21.336Z,1033.12
2023-12-16T01:15:42.039Z,1033.12
2023-12-16T01:16:02.542Z,1033.09
2023-12-16T01:16:23.167Z,1033.15
2023-12-16T01:16:43.667Z,1033.13
2023-12-16T01:17:04.205Z,1033.18
2023-12-16T01:17:24.779Z,1033.13
2023-12-16T01:17:45.432Z,1033.14
2023-12-16T01:18:06.031Z,1033.12
2023-12-16T01:18:26.565Z,1033.17
2023-12-16T01:18:47.357Z,1033.15
2023-12-16T01:19:07.979Z,1033.15
2023-12-16T01:19:28.415Z,1033.14
2023-12-16T01:19:48.810Z,1033.18
2023-12-16T01:20:09.382Z,1033.18
2023-12-16T01:20:29.918Z,1033.14
2023-12-16T01:20:50.511Z,1033.1
2023-12-16T01:21:11.082Z,1033.09
2023-12-16T01:21:31.647Z,1033.16
2023-12-16T01:21:52.317Z,1033.12
2023-12-16T01:22:12.804Z,1033.08
2023-12-16T01:22:33.385Z,1033.13
2023-12-16T01:22:53.948Z,1033.11
2023-12-16T01:23:14.526Z,1033.09
2023-12-16T01:23:35.096Z,1033.12
2023-12-16T01:24:16.240Z,1033.11
2023-12-16T01:24:36.799Z,1033.17
2023-12-16T01:24:57.510Z,1033.14
2023-12-16T01:25:17.989Z,1033.13
2023-12-16T01:25:38.532Z,1033.15
2023-12-16T01:25:59.118Z,1033.13
2023-12-16T01:26:19.657Z,1033.2
2023-12-16T01:26:40.155Z,1033.2
2023-12-16T01:27:00.858Z,1033.2
2023-12-16T01:27:21.386Z,1033.21
2023-12-16T01:27:41.975Z,1033.21
2023-12-16T01:28:02.572Z,1033.2
2023-12-16T01:28:23.128Z,1033.2
2023-12-16T01:28:43.666Z,1033.2
2023-12-16T01:29:04.279Z,1033.2
2023-12-16T01:29:24.820Z,1033.24
2023-12-16T01:29:45.387Z,1033.16
2023-12-16T01:30:06.014Z,1033.16
2023-12-16T01:30:26.640Z,1033.18
2023-12-16T01:30:47.129Z,1033.18
2023-12-16T01:31:07.812Z,1033.17
2023-12-16T01:31:28.262Z,1033.18
2023-12-16T01:31:48.840Z,1033.19
2023-12-16T01:32:29.996Z,1033.13
2023-12-16T01:32:50.600Z,1033.13
2023-12-16T01:33:11.262Z,1033.14
2023-12-16T01:33:31.708Z,1033.11
2023-12-16T01:33:52.330Z,1033.06
2023-12-16T01:34:12.886Z,1033.08
2023-12-16T01:34:33.451Z,1033.01
2023-12-16T01:34:53.979Z,1033.06
2023-12-16T01:35:14.565Z,1033.01
2023-12-16T01:35:35.140Z,1032.99
2023-12-16T01:35:55.693Z,1033.02
2023-12-16T01:36:16.301Z,1032.98
2023-12-16T01:36:36.760Z,1032.99
2023-12-16T01:36:57.521Z,1032.98
2023-12-16T01:37:18.139Z,1032.99
2023-12-16T01:37:38.886Z,1032.99
2023-12-16T01:37:59.141Z,1032.96
2023-12-16T01:38:19.698Z,1032.99
2023-12-16T01:38:40.276Z,1032.98
2023-12-16T01:39:00.852Z,1032.93
2023-12-16T01:39:21.439Z,1032.96
2023-12-16T01:39:42.005Z,1032.89
2023-12-16T01:40:02.660Z,1032.93
2023-12-16T01:40:23.207Z,1032.88
2023-12-16T01:40:43.922Z,1032.95
2023-12-16T01:41:04.330Z,1032.91
2023-12-16T01:41:24.889Z,1032.86
2023-12-16T01:41:45.454Z,1032.87
2023-12-16T01:42:26.561Z,1032.95
2023-12-16T01:42:47.215Z,1032.94
2023-12-16T01:43:07.819Z,1032.97
2023-12-16T01:43:28.301Z,1032.95
2023-12-16T01:43:48.864Z,1032.92
2023-12-16T01:44:09.425Z,1032.95
2023-12-16T01:44:30.037Z,1032.96
2023-12-16T01:44:50.569Z,1032.97
2023-12-16T01:45:11.145Z,1032.97
2023-12-16T01:45:31.715Z,1032.95
2023-12-16T01:45:52.358Z,1032.95
2023-12-16T01:46:12.918Z,1032.96
2023-12-16T01:46:33.530Z,1032.97
2023-12-16T01:46:54.100Z,1032.98
2023-12-16T01:47:14.579Z,1033.02
2023-12-16T01:47:35.175Z,1033.04
2023-12-16T01:47:55.795Z,1033.03
2023-12-16T01:48:16.373Z,1033.06
2023-12-16T01:48:37.000Z,1033.03
2023-12-16T01:48:57.553Z,1033.04
2023-12-16T01:49:18.094Z,1033.03
2023-12-16T01:49:38.619Z,1033.04
2023-12-16T01:49:59.221Z,1033.09
2023-12-16T01:50:19.738Z,1033.07
2023-12-16T01:50:40.316Z,1033.03
2023-12-16T01:51:17.351Z,1033.08
2023-12-16T01:51:37.965Z,1033.08
2023-12-16T01:52:19.166Z,1033.15
2023-12-16T01:52:39.641Z,1033.15
2023-12-16T01:53:00.304Z,1033.12
2023-12-16T01:53:20.780Z,1033.15
2023-12-16T01:53:41.396Z,1033.13
2023-12-16T01:54:02.174Z,1033.19
2023-12-16T01:54:22.490Z,1033.12
2023-12-16T01:54:43.118Z,1033.16
2023-12-16T01:55:03.728Z,1033.17
2023-12-16T01:55:24.356Z,1033.11
2023-12-16T01:55:44.784Z,1033.1
2023-12-16T01:56:05.357Z,1033.08
2023-12-16T01:56:25.856Z,1033.12
2023-12-16T01:56:46.517Z,1033.14
2023-12-16T01:57:07.088Z,1033.11
2023-12-16T01:57:27.673Z,1033.12
2023-12-16T01:57:48.348Z,1033.13
2023-12-16T01:58:08.864Z,1033.13
2023-12-16T01:58:29.418Z,1033.16
2023-12-16T01:58:49.992Z,1033.08
2023-12-16T01:59:10.539Z,1033.14
2023-12-16T01:59:31.102Z,1033.14
2023-12-16T01:59:51.674Z,1033.13
2023-12-16T02:00:12.265Z,1033.11
2023-12-16T02:00:34.036Z,1033.11
2023-12-16T02:00:53.355Z,1033.12
2023-12-16T02:01:14.050Z,1033.19
2023-12-16T02:01:34.653Z,1033.13
2023-12-16T02:01:55.163Z,1033.13
2023-12-16T02:02:15.671Z,1033.14
2023-12-16T02:02:36.249Z,1033.12
2023-12-16T02:02:56.824Z,1033.11
2023-12-16T02:03:17.414Z,1033.13
2023-12-16T02:03:37.989Z,1033.1
2023-12-16T02:03:58.597Z,1033.09
2023-12-16T02:04:19.240Z,1033.12
2023-12-16T02:04:39.743Z,1033.12
2023-12-16T02:05:00.373Z,1033.08
2023-12-16T02:05:20.808Z,1033.03
2023-12-16T02:05:41.381Z,1033.06
2023-12-16T02:06:02.033Z,1033.06
2023-12-16T02:06:22.536Z,1033.06
2023-12-16T02:06:43.282Z,1033.09
2023-12-16T02:07:03.847Z,1033.07
2023-12-16T02:07:24.298Z,1033.12
2023-12-16T02:07:44.852Z,1033.09
2023-12-16T02:08:05.386Z,1033.11
2023-12-16T02:08:25.974Z,1033.15
2023-12-16T02:08:46.551Z,1033.1
2023-12-16T02:09:07.095Z,1033.09
2023-12-16T02:09:27.675Z,1033.1
2023-12-16T02:09:48.277Z,1033.1
2023-12-16T02:10:08.885Z,1033.16
2023-12-16T02:10:29.557Z,1033.12
2023-12-16T02:10:49.977Z,1033.1
2023-12-16T02:11:10.569Z,1033.12
2023-12-16T02:11:31.130Z,1033.16
2023-12-16T02:11:51.618Z,1033.11
2023-12-16T02:12:12.296Z,1033.11
2023-12-16T02:12:32.832Z,1033.12
2023-12-16T02:12:53.502Z,1033.1
2023-12-16T02:13:14.041Z,1033.11
2023-12-16T02:13:35.604Z,1033.09
2023-12-16T02:13:55.162Z,1033.11
2023-12-16T02:14:15.900Z,1033.14
2023-12-16T02:14:36.305Z,1033.12
2023-12-16T02:14:56.856Z,1033.14
2023-12-16T02:15:17.409Z,1033.15
2023-12-16T02:15:38.076Z,1033.16
2023-12-16T02:15:58.588Z,1033.11
2023-12-16T02:16:19.210Z,1033.16
2023-12-16T02:16:39.705Z,1033.18
2023-12-16T02:17:00.294Z,1033.16
2023-12-16T02:17:20.855Z,1033.17
2023-12-16T02:17:41.791Z,1033.19
2023-12-16T02:18:02.092Z,1033.17
2023-12-16T02:18:22.712Z,1033.17
2023-12-16T02:18:43.203Z,1033.2
2023-12-16T02:19:03.955Z,1033.23
2023-12-16T02:19:24.346Z,1033.26
2023-12-16T02:19:44.955Z,1033.32
2023-12-16T02:20:05.543Z,1033.33
2023-12-16T02:20:26.009Z,1033.37
2023-12-16T02:20:46.586Z,1033.34
2023-12-16T02:21:07.210Z,1033.39
2023-12-16T02:21:27.748Z,1033.41
2023-12-16T02:21:48.325Z,1033.4
2023-12-16T02:22:08.920Z,1033.38
2023-12-16T02:22:29.467Z,1033.38
2023-12-16T02:22:49.961Z,1033.43
2023-12-16T02:23:10.516Z,1033.42
2023-12-16T02:23:31.195Z,1033.45
2023-12-16T02:23:51.760Z,1033.42
2023-12-16T02:24:12.346Z,1033.38
2023-12-16T02:24:32.910Z,1033.43
2023-12-16T02:24:53.474Z,1033.42
2023-12-16T02:25:14.100Z,1033.5
2023-12-16T02:25:34.643Z,1033.46
2023-12-16T02:25:55.169Z,1033.44
2023-12-16T02:26:15.747Z,1033.44
2023-12-16T02:26:36.320Z,1033.42
2023-12-16T02:26:56.871Z,1033.47
2023-12-16T02:27:17.484Z,1033.49
2023-12-16T02:27:38.425Z,1033.45
2023-12-16T02:27:58.627Z,1033.44
2023-12-16T02:28:19.231Z,1033.43
2023-12-16T02:28:39.743Z,1033.39
2023-12-16T02:29:00.325Z,1033.41
2023-12-16T02:29:20.888Z,1033.38
2023-12-16T02:29:41.459Z,1033.39
2023-12-16T02:30:02.073Z,1033.42
2023-12-16T02:30:22.691Z,1033.39
2023-12-16T02:30:43.205Z,1033.42
2023-12-16T02:31:03.964Z,1033.45
2023-12-16T02:31:24.372Z,1033.44
2023-12-16T02:31:44.937Z,1033.4
2023-12-16T02:32:05.458Z,1033.42
2023-12-16T02:32:26.105Z,1033.38
2023-12-16T02:32:46.680Z,1033.43
2023-12-16T02:33:07.322Z,1033.43
2023-12-16T02:33:27.849Z,1033.42
2023-12-16T02:33:48.479Z,1033.43
2023-12-16T02:34:08.988Z,1033.42
2023-12-16T02:34:29.513Z,1033.43
2023-12-16T02:34:50.046Z,1033.37
2023-12-16T02:35:10.665Z,1033.43
2023-12-16T02:35:31.239Z,1033.44
2023-12-16T02:35:51.773Z,1033.45
2023-12-16T02:36:12.375Z,1033.45
2023-12-16T02:36:32.908Z,1033.44
2023-12-16T02:36:53.505Z,1033.45
2023-12-16T02:37:14.147Z,1033.48
2023-12-16T02:37:34.627Z,1033.43
2023-12-16T02:37:55.204Z,1033.44
2023-12-16T02:38:15.799Z,1033.41
2023-12-16T02:38:36.338Z,1033.43
2023-12-16T02:38:56.905Z,1033.41
2023-12-16T02:39:17.490Z,1033.36
2023-12-16T02:39:38.060Z,1033.39
2023-12-16T02:39:58.718Z,1033.37
2023-12-16T02:40:19.258Z,1033.38
2023-12-16T02:40:39.762Z,1033.35
2023-12-16T02:41:00.403Z,1033.3
2023-12-16T02:41:20.927Z,1033.35
2023-12-16T02:41:41.498Z,1033.35
2023-12-16T02:42:02.081Z,1033.35
2023-12-16T02:42:22.668Z,1033.34
2023-12-16T02:42:43.127Z,1033.35
2023-12-16T02:43:03.825Z,1033.36
2023-12-16T02:43:24.408Z,1033.31
2023-12-16T02:43:44.969Z,1033.37
2023-12-16T02:44:05.517Z,1033.39
2023-12-16T02:44:26.077Z,1033.33
2023-12-16T02:44:46.651Z,1033.35
2023-12-16T02:45:07.233Z,1033.32
2023-12-16T02:45:27.783Z,1033.4
2023-12-16T02:45:48.367Z,1033.36
2023-12-16T02:46:09.024Z,1033.34
2023-12-16T02:46:29.598Z,1033.38
2023-12-16T02:46:50.071Z,1033.39
2023-12-16T02:47:10.670Z,1033.4
2023-12-16T02:47:31.295Z,1033.44
2023-12-16T02:47:51.842Z,1033.46
2023-12-16T02:48:12.435Z,1033.42
2023-12-16T02:48:32.972Z,1033.39
2023-12-16T02:48:53.620Z,1033.41
2023-12-16T02:49:14.220Z,1033.4
2023-12-16T02:49:34.767Z,1033.39
2023-12-16T02:49:55.322Z,1033.4
2023-12-16T02:50:15.806Z,1033.42
2023-12-16T02:50:36.377Z,1033.42
2023-12-16T02:50:56.962Z,1033.4
2023-12-16T02:51:17.518Z,1033.42
2023-12-16T02:51:38.099Z,1033.42
2023-12-16T02:51:58.671Z,1033.41
2023-12-16T02:52:19.313Z,1033.4
2023-12-16T02:52:39.806Z,1033.4
2023-12-16T02:53:00.467Z,1033.39
2023-12-16T02:53:20.965Z,1033.41
2023-12-16T02:53:41.526Z,1033.4
2023-12-16T02:54:02.119Z,1033.38
2023-12-16T02:54:22.681Z,1033.41
2023-12-16T02:54:43.292Z,1033.35
2023-12-16T02:55:03.878Z,1033.36
2023-12-16T02:55:24.634Z,1033.37
2023-12-16T02:55:44.968Z,1033.36
2023-12-16T02:56:05.559Z,1033.36
2023-12-16T02:56:26.114Z,1033.38
2023-12-16T02:56:46.699Z,1033.35
2023-12-16T02:57:07.254Z,1033.36
2023-12-16T02:57:27.814Z,1033.31
2023-12-16T02:57:48.446Z,1033.29
2023-12-16T02:58:09.030Z,1033.3
2023-12-16T02:58:29.558Z,1033.3
2023-12-16T02:58:50.156Z,1033.34
2023-12-16T02:59:10.753Z,1033.29
2023-12-16T02:59:31.319Z,1033.3
2023-12-16T03:00:08.313Z,1033.32
2023-12-16T03:00:28.884Z,1033.35
2023-12-16T03:00:49.561Z,1033.29
2023-12-16T03:01:10.147Z,1033.3
2023-12-16T03:01:30.740Z,1033.29
2023-12-16T03:01:51.224Z,1033.27
2023-12-16T03:02:11.746Z,1033.28
2023-12-16T03:02:32.244Z,1033.28
2023-12-16T03:02:52.920Z,1033.23
2023-12-16T03:03:13.512Z,1033.22
2023-12-16T03:03:34.082Z,1033.24
2023-12-16T03:03:54.628Z,1033.23
2023-12-16T03:04:15.223Z,1033.24
2023-12-16T03:04:35.745Z,1033.23
2023-12-16T03:04:56.376Z,1033.18
2023-12-16T03:05:16.908Z,1033.23
2023-12-16T03:05:37.516Z,1033.23
2023-12-16T03:05:58.047Z,1033.19
2023-12-16T03:06:18.653Z,1033.23
2023-12-16T03:06:39.186Z,1033.21
2023-12-16T03:06:59.833Z,1033.16
2023-12-16T03:07:20.369Z,1033.17
2023-12-16T03:07:41.073Z,1033.24
2023-12-16T03:08:01.475Z,1033.16
2023-12-16T03:08:22.051Z,1033.2
2023-12-16T03:08:42.650Z,1033.19
2023-12-16T03:09:03.243Z,1033.2
2023-12-16T03:09:23.755Z,1033.2
2023-12-16T03:09:44.391Z,1033.21
2023-12-16T03:10:04.901Z,1033.22
2023-12-16T03:10:25.605Z,1033.25
2023-12-16T03:10:46.049Z,1033.18
2023-12-16T03:11:06.623Z,1033.28
2023-12-16T03:11:27.174Z,1033.25
2023-12-16T03:11:47.804Z,1033.28
2023-12-16T03:12:08.370Z,1033.26
2023-12-16T03:12:28.933Z,1033.26
2023-12-16T03:12:49.510Z,1033.26
2023-12-16T03:13:10.093Z,1033.31
2023-12-16T03:13:30.631Z,1033.27
2023-12-16T03:13:51.215Z,1033.29
2023-12-16T03:14:11.814Z,1033.23
2023-12-16T03:14:32.474Z,1033.3
2023-12-16T03:14:52.939Z,1033.31
2023-12-16T03:15:13.496Z,1033.3
2023-12-16T03:15:34.075Z,1033.28
2023-12-16T03:15:54.652Z,1033.33
2023-12-16T03:16:15.245Z,1033.38
2023-12-16T03:16:35.818Z,1033.33
2023-12-16T03:16:56.389Z,1033.31
2023-12-16T03:17:17.023Z,1033.32
2023-12-16T03:17:37.976Z,1033.32
2023-12-16T03:17:58.114Z,1033.33
2023-12-16T03:18:18.704Z,1033.32
2023-12-16T03:18:39.254Z,1033.35
2023-12-16T03:18:59.854Z,1033.39
2023-12-16T03:19:20.449Z,1033.36
2023-12-16T03:19:41.304Z,1033.31
2023-12-16T03:20:01.614Z,1033.31
2023-12-16T03:20:22.070Z,1033.38
2023-12-16T03:20:42.660Z,1033.37
2023-12-16T03:21:03.224Z,1033.31
2023-12-16T03:21:23.786Z,1033.32
2023-12-16T03:21:44.399Z,1033.36
2023-12-16T03:22:05.020Z,1033.34
2023-12-16T03:22:25.637Z,1033.34
2023-12-16T03:22:46.108Z,1033.36
2023-12-16T03:23:06.681Z,1033.33
2023-12-16T03:23:27.257Z,1033.33
2023-12-16T03:23:47.831Z,1033.33
2023-12-16T03:24:08.400Z,1033.4
2023-12-16T03:24:28.979Z,1033.36
2023-12-16T03:24:49.539Z,1033.4
2023-12-16T03:25:10.240Z,1033.36
2023-12-16T03:25:30.713Z,1033.4
2023-12-16T03:25:51.332Z,1033.41
2023-12-16T03:26:11.861Z,1033.38
2023-12-16T03:26:32.392Z,1033.38
2023-12-16T03:26:52.970Z,1033.41
2023-12-16T03:27:13.540Z,1033.46
2023-12-16T03:27:34.102Z,1033.42
2023-12-16T03:27:54.731Z,1033.42
2023-12-16T03:28:15.314Z,1033.39
2023-12-16T03:28:35.831Z,1033.4
2023-12-16T03:28:56.437Z,1033.43
2023-12-16T03:29:16.961Z,1033.39
2023-12-16T03:29:37.582Z,1033.47
2023-12-16T03:29:58.125Z,1033.44
2023-12-16T03:30:18.731Z,1033.43
2023-12-16T03:30:39.277Z,1033.48
2023-12-16T03:30:59.894Z,1033.44
2023-12-16T03:31:20.399Z,1033.45
2023-12-16T03:31:41.002Z,1033.46
2023-12-16T03:32:01.557Z,1033.43
2023-12-16T03:32:22.147Z,1033.47
2023-12-16T03:32:42.753Z,1033.43
2023-12-16T03:33:03.448Z,1033.47
2023-12-16T03:33:23.864Z,1033.44
2023-12-16T03:33:44.577Z,1033.42
2023-12-16T03:34:05.024Z,1033.46
2023-12-16T03:34:25.596Z,1033.45
2023-12-16T03:34:46.189Z,1033.43
2023-12-16T03:35:06.698Z,1033.46
2023-12-16T03:35:27.278Z,1033.49
2023-12-16T03:35:47.841Z,1033.52
2023-12-16T03:36:08.445Z,1033.54
2023-12-16T03:36:28.999Z,1033.55
2023-12-16T03:36:49.651Z,1033.57
2023-12-16T03:37:10.232Z,1033.58
2023-12-16T03:37:30.770Z,1033.55
2023-12-16T03:37:51.263Z,1033.58
2023-12-16T03:38:11.857Z,1033.6
2023-12-16T03:38:32.450Z,1033.61
2023-12-16T03:38:52.911Z,1033.62
2023-12-16T03:39:13.571Z,1033.63
2023-12-16T03:39:34.130Z,1033.61
2023-12-16T03:39:54.746Z,1033.61
2023-12-16T03:40:15.424Z,1033.58
2023-12-16T03:40:35.987Z,1033.61
2023-12-16T03:40:56.486Z,1033.59
2023-12-16T03:41:17.021Z,1033.62
2023-12-16T03:41:37.628Z,1033.6
2023-12-16T03:41:58.152Z,1033.64
2023-12-16T03:42:18.725Z,1033.63
2023-12-16T03:42:39.335Z,1033.66
2023-12-16T03:43:00.143Z,1033.68
2023-12-16T03:43:20.471Z,1033.71
2023-12-16T03:43:41.006Z,1033.72
2023-12-16T03:44:01.596Z,1033.7
2023-12-16T03:44:22.165Z,1033.75
2023-12-16T03:44:42.751Z,1033.64
2023-12-16T03:45:03.303Z,1033.68
2023-12-16T03:45:23.899Z,1033.65
2023-12-16T03:45:44.465Z,1033.62
2023-12-16T03:46:05.090Z,1033.64
2023-12-16T03:46:25.685Z,1033.64
2023-12-16T03:46:46.185Z,1033.62
2023-12-16T03:47:06.752Z,1033.6
2023-12-16T03:47:27.304Z,1033.62
2023-12-16T03:47:47.889Z,1033.6
2023-12-16T03:48:08.576Z,1033.62
2023-12-16T03:48:29.133Z,1033.59
2023-12-16T03:48:49.687Z,1033.55
2023-12-16T03:49:10.284Z,1033.6
2023-12-16T03:49:30.793Z,1033.59
2023-12-16T03:49:51.370Z,1033.64
2023-12-16T03:50:11.929Z,1033.62
2023-12-16T03:50:32.450Z,1033.67
2023-12-16T03:50:53.031Z,1033.62
2023-12-16T03:51:13.612Z,1033.64
2023-12-16T03:51:34.185Z,1033.66
2023-12-16T03:51:54.755Z,1033.66
2023-12-16T03:52:15.396Z,1033.62
2023-12-16T03:52:35.889Z,1033.7
2023-12-16T03:52:56.486Z,1033.68
2023-12-16T03:53:17.055Z,1033.66
2023-12-16T03:53:37.631Z,1033.64
2023-12-16T03:53:58.166Z,1033.67
2023-12-16T03:54:18.668Z,1033.64
2023-12-16T03:54:39.351Z,1033.65
2023-12-16T03:54:59.969Z,1033.6
2023-12-16T03:55:20.515Z,1033.62
2023-12-16T03:55:41.055Z,1033.63
2023-12-16T03:56:01.668Z,1033.61
2023-12-16T03:56:22.207Z,1033.61
2023-12-16T03:56:42.773Z,1033.57
2023-12-16T03:57:03.378Z,1033.58
2023-12-16T03:57:23.901Z,1033.62
2023-12-16T03:57:44.504Z,1033.59
2023-12-16T03:58:05.077Z,1033.57
2023-12-16T03:58:25.721Z,1033.61
2023-12-16T03:58:46.197Z,1033.58
2023-12-16T03:59:06.806Z,1033.57
2023-12-16T03:59:27.371Z,1033.61
2023-12-16T03:59:47.988Z,1033.58
2023-12-16T04:00:08.564Z,1033.59
2023-12-16T04:00:29.086Z,1033.57
2023-12-16T04:00:49.807Z,1033.6
2023-12-16T04:01:10.270Z,1033.58
2023-12-16T04:01:30.925Z,1033.58
2023-12-16T04:01:51.426Z,1033.59
2023-12-16T04:02:11.924Z,1033.55
2023-12-16T04:02:32.550Z,1033.56
2023-12-16T04:02:53.112Z,1033.57
2023-12-16T04:03:13.705Z,1033.55
2023-12-16T04:03:34.224Z,1033.57
2023-12-16T04:03:54.803Z,1033.55
2023-12-16T04:04:15.385Z,1033.58
2023-12-16T04:04:35.940Z,1033.51
2023-12-16T04:04:56.491Z,1033.59
2023-12-16T04:05:17.081Z,1033.55
2023-12-16T04:05:37.695Z,1033.59
2023-12-16T04:05:58.258Z,1033.62
2023-12-16T04:06:18.786Z,1033.57
2023-12-16T04:06:39.362Z,1033.59
2023-12-16T04:06:59.914Z,1033.62
2023-12-16T04:07:20.528Z,1033.61
2023-12-16T04:07:41.294Z,1033.64
2023-12-16T04:08:01.668Z,1033.64
2023-12-16T04:08:22.243Z,1033.59
2023-12-16T04:08:59.271Z,1033.6
2023-12-16T04:09:19.852Z,1033.61
2023-12-16T04:09:40.402Z,1033.64
2023-12-16T04:10:01.101Z,1033.59
2023-12-16T04:10:21.644Z,1033.58
2023-12-16T04:10:42.172Z,1033.58
2023-12-16T04:11:02.743Z,1033.6
2023-12-16T04:11:23.306Z,1033.58
2023-12-16T04:11:43.982Z,1033.6
2023-12-16T04:12:04.441Z,1033.59
2023-12-16T04:12:24.991Z,1033.64